createdAt,value
2022-08-22T00:00:13.801Z,101128.41
2022-08-22T00:02:53.437Z,101321.97
2022-08-22T00:02:53.828Z,101284.63
2022-08-22T00:03:17.585Z,101128.66
2022-08-22T00:05:53.540Z,101127.41
2022-08-22T00:08:28.642Z,101127.03
2022-08-22T00:11:03.829Z,101113.72
2022-08-22T00:13:37.584Z,101102.25
2022-08-22T00:16:14.244Z,101094.69
2022-08-22T00:18:52.124Z,101093.84
2022-08-22T00:21:29.796Z,101095.09
2022-08-22T00:24:09.770Z,101088.53
2022-08-22T00:26:50.202Z,101070.13
2022-08-22T00:29:24.144Z,101059.88
2022-08-22T00:32:01.826Z,101063.16
2022-08-22T00:34:38.036Z,101058.66
2022-08-22T00:37:11.550Z,101050.88
2022-08-22T00:39:45.397Z,101050.84
2022-08-22T00:42:43.485Z,101047.56
2022-08-22T00:45:32.186Z,101043.06
2022-08-22T00:48:24.786Z,101036.06
2022-08-22T00:51:25.158Z,101024.59
2022-08-22T00:54:01.424Z,101021.09
2022-08-22T00:56:50.862Z,101009.00
2022-08-22T00:59:49.059Z,100995.28
2022-08-22T01:02:33.099Z,100983.88
2022-08-22T01:05:21.510Z,100964.81
2022-08-22T01:08:09.657Z,100959.94
2022-08-22T01:10:54.819Z,100950.09
2022-08-22T01:13:52.231Z,100930.44
2022-08-22T01:16:43.167Z,100933.72
2022-08-22T01:19:57.254Z,100921.03
2022-08-22T01:23:06.597Z,100892.38
2022-08-22T01:26:17.132Z,100888.72
2022-08-22T01:29:28.257Z,100860.44
2022-08-22T01:32:40.739Z,100852.88
2022-08-22T01:35:52.208Z,100842.06
2022-08-22T01:38:58.319Z,100815.66
2022-08-22T01:41:53.421Z,100795.81
2022-08-22T01:44:41.856Z,100769.63
2022-08-22T01:47:16.223Z,100758.19
2022-08-22T01:49:48.344Z,100741.38
2022-08-22T01:52:25.167Z,100716.63
2022-08-22T01:55:00.679Z,100711.94
2022-08-22T01:57:29.177Z,100691.03
2022-08-22T02:00:05.533Z,100680.41
2022-08-22T02:02:58.716Z,100661.59
2022-08-22T02:05:32.382Z,100640.72
2022-08-22T02:08:05.024Z,100630.09
2022-08-22T02:10:51.848Z,100619.44
2022-08-22T02:13:33.092Z,100610.00
2022-08-22T02:16:15.669Z,100591.19
2022-08-22T02:18:55.506Z,100576.63
2022-08-22T02:21:29.580Z,100569.28
2022-08-22T02:24:04.110Z,100561.28
2022-08-22T02:26:46.187Z,100549.03
2022-08-22T02:29:20.459Z,100535.50
2022-08-22T02:31:55.253Z,100538.16
2022-08-22T02:34:35.052Z,100528.91
2022-08-22T02:37:14.172Z,100520.94
2022-08-22T02:39:51.930Z,100516.25
2022-08-22T02:42:27.635Z,100518.28
2022-08-22T02:45:05.045Z,100497.00
2022-08-22T02:47:40.298Z,100493.75
2022-08-22T02:50:20.344Z,100491.69
2022-08-22T02:52:58.228Z,100480.22
2022-08-22T02:55:41.417Z,100470.38
2022-08-22T02:58:21.575Z,100458.94
2022-08-22T03:00:53.752Z,100454.44
2022-08-22T03:03:28.834Z,100451.38
2022-08-22T03:06:02.673Z,100441.56
2022-08-22T03:08:33.763Z,100447.25
2022-08-22T03:11:16.970Z,100439.28
2022-08-22T03:13:58.005Z,100442.09
2022-08-22T03:16:34.326Z,100434.72
2022-08-22T03:19:07.743Z,100435.56
2022-08-22T03:21:49.010Z,100428.53
2022-08-22T03:24:24.025Z,100430.16
2022-08-22T03:27:03.402Z,100422.19
2022-08-22T03:29:37.284Z,100410.09
2022-08-22T03:32:10.005Z,100411.88
2022-08-22T03:34:39.188Z,100404.31
2022-08-22T03:37:16.954Z,100408.00
2022-08-22T03:39:56.202Z,100434.69
2022-08-22T03:43:01.048Z,100437.56
2022-08-22T03:46:06.171Z,100448.84
2022-08-22T03:49:04.248Z,100440.44
2022-08-22T03:51:49.270Z,100439.19
2022-08-22T03:54:51.742Z,100451.47
2022-08-22T03:57:42.513Z,100450.81
2022-08-22T04:00:22.748Z,100454.28
2022-08-22T04:03:21.336Z,100450.59
2022-08-22T04:06:30.306Z,100451.41
2022-08-22T04:09:44.149Z,100445.72
2022-08-22T04:12:44.903Z,100437.94
2022-08-22T04:15:48.663Z,100442.88
2022-08-22T04:18:40.713Z,100443.69
2022-08-22T04:21:35.462Z,100434.91
2022-08-22T04:24:34.935Z,100438.56
2022-08-22T04:27:11.819Z,100430.81
2022-08-22T04:29:46.605Z,100433.88
2022-08-22T04:32:21.427Z,100427.72
2022-08-22T04:34:54.717Z,100421.75
2022-08-22T04:37:31.882Z,100416.63
2022-08-22T04:40:04.406Z,100416.63
2022-08-22T04:42:37.344Z,100417.44
2022-08-22T04:45:14.116Z,100423.41
2022-08-22T04:47:54.239Z,100418.94
2022-08-22T04:50:26.579Z,100417.91
2022-08-22T04:53:09.820Z,100416.28
2022-08-22T04:56:06.757Z,100421.16
2022-08-22T04:58:47.019Z,100414.59
2022-08-22T05:01:19.486Z,100420.28
2022-08-22T05:03:57.405Z,100411.69
2022-08-22T05:06:29.785Z,100413.31
2022-08-22T05:09:04.297Z,100405.16
2022-08-22T05:11:34.866Z,100410.25
2022-08-22T05:14:08.360Z,100408.38
2022-08-22T05:16:40.981Z,100402.84
2022-08-22T05:19:16.932Z,100414.91
2022-08-22T05:21:49.640Z,100404.25
2022-08-22T05:24:24.244Z,100407.31
2022-08-22T05:27:01.120Z,100391.91
2022-08-22T05:29:32.141Z,100391.50
2022-08-22T05:32:04.953Z,100386.75
2022-08-22T05:34:40.014Z,100385.72
2022-08-22T05:37:15.050Z,100375.88
2022-08-22T05:39:49.137Z,100389.78
2022-08-22T05:42:24.476Z,100376.88
2022-08-22T05:44:53.004Z,100372.72
2022-08-22T05:47:24.901Z,100370.06
2022-08-22T05:50:02.265Z,100368.00
2022-08-22T05:52:43.002Z,100363.25
2022-08-22T05:55:23.165Z,100365.72
2022-08-22T05:57:58.900Z,100362.16
2022-08-22T06:00:34.169Z,100347.34
2022-08-22T06:03:14.581Z,100339.50
2022-08-22T06:05:51.290Z,100333.28
2022-08-22T06:08:23.526Z,100318.88
2022-08-22T06:10:55.438Z,100307.78
2022-08-22T06:13:32.370Z,100312.63
2022-08-22T06:16:11.792Z,100301.53
2022-08-22T06:18:43.439Z,100318.72
2022-08-22T06:21:19.331Z,100297.19
2022-08-22T06:23:53.852Z,100293.41
2022-08-22T06:26:22.770Z,100292.91
2022-08-22T06:28:56.512Z,100286.91
2022-08-22T06:31:28.875Z,100282.75
2022-08-22T06:34:01.529Z,100285.19
2022-08-22T06:36:31.816Z,100282.31
2022-08-22T06:39:11.504Z,100269.78
2022-08-22T06:41:47.529Z,100271.19
2022-08-22T06:44:20.140Z,100261.69
2022-08-22T06:46:52.190Z,100258.22
2022-08-22T06:49:23.330Z,100257.53
2022-08-22T06:51:53.622Z,100251.16
2022-08-22T06:54:27.633Z,100252.31
2022-08-22T06:56:58.522Z,100267.63
2022-08-22T06:59:30.434Z,100271.91
2022-08-22T07:02:04.652Z,100274.59
2022-08-22T07:04:33.307Z,100279.47
2022-08-22T07:07:03.806Z,100281.09
2022-08-22T07:09:37.566Z,100296.06
2022-08-22T07:12:12.969Z,100293.63
2022-08-22T07:14:43.244Z,100301.63
2022-08-22T07:17:21.695Z,100292.34
2022-08-22T07:19:58.541Z,100285.97
2022-08-22T07:22:32.085Z,100286.53
2022-08-22T07:25:08.196Z,100287.72
2022-08-22T07:27:53.725Z,100290.75
2022-08-22T07:30:28.106Z,100291.09
2022-08-22T07:33:01.486Z,100291.47
2022-08-22T07:35:57.752Z,100291.59
2022-08-22T07:38:42.711Z,100297.25
2022-08-22T07:41:16.543Z,100293.88
2022-08-22T07:43:50.447Z,100302.72
2022-08-22T07:46:29.922Z,100319.06
2022-08-22T07:49:10.784Z,100310.25
2022-08-22T07:51:46.428Z,100307.34
2022-08-22T07:54:20.265Z,100311.88
2022-08-22T07:56:59.404Z,100313.53
2022-08-22T07:59:29.938Z,100333.97
2022-08-22T08:02:01.650Z,100337.44
2022-08-22T08:04:36.888Z,100344.84
2022-08-22T08:07:10.723Z,100361.72
2022-08-22T08:09:44.533Z,100371.19
2022-08-22T08:12:16.063Z,100378.59
2022-08-22T08:14:47.534Z,100386.03
2022-08-22T08:17:18.653Z,100397.13
2022-08-22T08:19:48.099Z,100406.91
2022-08-22T08:22:20.062Z,100418.72
2022-08-22T08:24:51.675Z,100421.22
2022-08-22T08:27:41.572Z,100429.34
2022-08-22T08:30:17.228Z,100435.06
2022-08-22T08:32:57.481Z,100436.19
2022-08-22T08:36:02.735Z,100447.59
2022-08-22T08:38:37.672Z,100453.88
2022-08-22T08:41:40.705Z,100466.88
2022-08-22T08:44:22.723Z,100478.72
2022-08-22T08:47:15.297Z,100485.03
2022-08-22T08:50:06.518Z,100497.53
2022-08-22T08:56:25.918Z,100523.22
2022-08-22T08:59:10.010Z,100535.56
2022-08-22T09:02:20.571Z,100529.53
2022-08-22T09:05:19.558Z,100535.84
2022-08-22T09:08:01.851Z,100544.22
2022-08-22T09:11:09.894Z,100556.66
2022-08-22T09:14:11.916Z,100565.25
2022-08-22T09:17:00.387Z,100576.63
2022-08-22T09:20:17.593Z,100585.34
2022-08-22T09:23:24.822Z,100602.00
2022-08-22T09:26:01.526Z,100615.59
2022-08-22T09:28:40.783Z,100623.75
2022-08-22T09:31:44.954Z,100635.03
2022-08-22T09:34:25.792Z,100645.38
2022-08-22T09:37:08.015Z,100647.78
2022-08-22T09:39:43.433Z,100649.91
2022-08-22T09:40:16.672Z,100516.34
2022-08-22T09:42:19.890Z,100656.97
2022-08-22T09:45:01.790Z,100665.56
2022-08-22T09:47:39.932Z,100660.28
2022-08-22T09:50:17.591Z,100672.69
2022-08-22T09:52:56.963Z,100669.22
2022-08-22T09:55:41.875Z,100666.97
2022-08-22T09:58:23.648Z,100672.69
2022-08-22T10:00:59.389Z,100668.53
2022-08-22T10:03:54.771Z,100671.94
2022-08-22T10:06:29.042Z,100664.84
2022-08-22T10:09:04.863Z,100669.19
2022-08-22T10:11:44.618Z,100680.88
2022-08-22T10:14:22.446Z,100686.03
2022-08-22T10:17:00.863Z,100690.66
2022-08-22T10:19:38.055Z,100686.56
2022-08-22T10:22:31.738Z,100698.88
2022-08-22T10:25:11.125Z,100692.75
2022-08-22T10:27:54.682Z,100684.53
2022-08-22T10:30:26.961Z,100704.09
2022-08-22T10:33:03.513Z,100699.81
2022-08-22T10:35:40.861Z,100697.84
2022-08-22T10:38:15.096Z,100700.41
2022-08-22T10:40:50.835Z,100700.53
2022-08-22T10:43:28.940Z,100692.47
2022-08-22T10:46:04.192Z,100699.56
2022-08-22T10:48:48.298Z,100705.63
2022-08-22T10:51:28.667Z,100713.22
2022-08-22T10:54:12.365Z,100733.22
2022-08-22T10:56:45.372Z,100734.25
2022-08-22T10:59:27.364Z,100739.72
2022-08-22T11:02:06.826Z,100739.72
2022-08-22T11:05:04.257Z,100737.84
2022-08-22T11:07:56.554Z,100727.28
2022-08-22T11:10:29.376Z,100732.16
2022-08-22T11:13:23.830Z,100735.88
2022-08-22T11:16:01.348Z,100736.09
2022-08-22T11:18:51.483Z,100727.84
2022-08-22T11:21:47.252Z,100741.38
2022-08-22T11:25:03.692Z,100730.53
2022-08-22T11:27:41.047Z,100729.97
2022-08-22T11:30:18.706Z,100728.22
2022-08-22T11:33:16.007Z,100721.72
2022-08-22T11:35:53.553Z,100724.38
2022-08-22T11:38:36.123Z,100724.34
2022-08-22T11:41:13.414Z,100722.94
2022-08-22T11:43:55.961Z,100726.34
2022-08-22T11:46:30.114Z,100718.16
2022-08-22T11:49:10.922Z,100719.66
2022-08-22T11:51:59.262Z,100722.94
2022-08-22T11:54:42.281Z,100715.09
2022-08-22T11:57:17.482Z,100716.41
2022-08-22T12:00:03.110Z,100718.53
2022-08-22T12:02:42.093Z,100738.03
2022-08-22T12:05:17.945Z,100735.91
2022-08-22T12:08:01.511Z,100743.28
2022-08-22T12:10:35.021Z,100739.44
2022-08-22T12:13:09.842Z,100743.41
2022-08-22T12:15:48.917Z,100732.13
2022-08-22T12:18:34.651Z,100698.38
2022-08-22T12:21:40.746Z,100691.19
2022-08-22T12:24:23.670Z,100685.97
2022-08-22T12:27:18.200Z,100702.25
2022-08-22T12:30:13.069Z,100704.75
2022-08-22T12:33:21.910Z,100697.88
2022-08-22T12:36:00.982Z,100712.91
2022-08-22T12:38:41.178Z,100717.34
2022-08-22T12:41:40.128Z,100724.22
2022-08-22T12:44:30.212Z,100728.38
2022-08-22T12:47:17.342Z,100727.88
2022-08-22T12:50:05.096Z,100747.66
2022-08-22T12:52:57.814Z,100745.50
2022-08-22T12:55:47.014Z,100749.09
2022-08-22T12:58:33.112Z,100762.16
2022-08-22T13:01:07.016Z,100761.75
2022-08-22T13:03:45.096Z,100768.84
2022-08-22T13:07:01.100Z,100775.50
2022-08-22T13:09:35.786Z,100781.97
2022-08-22T13:12:15.532Z,100784.91
2022-08-22T13:14:52.821Z,100785.34
2022-08-22T13:17:25.139Z,100785.22
2022-08-22T13:20:20.965Z,100784.59
2022-08-22T13:22:49.793Z,100788.53
2022-08-22T13:25:26.684Z,100795.78
2022-08-22T13:27:59.167Z,100789.34
2022-08-22T13:30:31.812Z,100788.34
2022-08-22T13:33:08.757Z,100796.38
2022-08-22T13:35:51.568Z,100807.56
2022-08-22T13:38:26.549Z,100795.84
2022-08-22T13:40:56.941Z,100788.63
2022-08-22T13:43:29.843Z,100795.09
2022-08-22T13:46:02.136Z,100798.59
2022-08-22T13:48:46.787Z,100796.56
2022-08-22T13:51:24.989Z,100796.28
2022-08-22T13:54:02.848Z,100800.38
2022-08-22T13:56:47.834Z,100796.88
2022-08-22T13:59:47.498Z,100793.84
2022-08-22T14:02:30.848Z,100795.22
2022-08-22T14:05:06.946Z,100799.22
2022-08-22T14:07:40.228Z,100795.97
2022-08-22T14:10:15.049Z,100803.19
2022-08-22T14:13:04.879Z,100787.22
2022-08-22T14:15:46.093Z,100790.50
2022-08-22T14:18:18.748Z,100788.25
2022-08-22T14:20:49.614Z,100789.06
2022-08-22T14:23:26.904Z,100789.00
2022-08-22T14:25:57.367Z,100782.63
2022-08-22T14:28:29.975Z,100787.81
2022-08-22T14:31:03.493Z,100795.50
2022-08-22T14:33:36.376Z,100789.66
2022-08-22T14:36:17.929Z,100795.41
2022-08-22T14:38:53.331Z,100795.19
2022-08-22T14:41:52.998Z,100792.84
2022-08-22T14:44:24.106Z,100791.53
2022-08-22T14:46:55.926Z,100784.59
2022-08-22T14:49:34.777Z,100795.41
2022-08-22T14:52:10.981Z,100797.31
2022-08-22T14:54:50.971Z,100793.31
2022-08-22T14:57:20.975Z,100786.88
2022-08-22T14:59:52.783Z,100776.91
2022-08-22T15:02:27.866Z,100788.97
2022-08-22T15:05:01.850Z,100793.44
2022-08-22T15:07:37.421Z,100789.56
2022-08-22T15:10:11.916Z,100788.78
2022-08-22T15:12:48.705Z,100795.00
2022-08-22T15:15:30.787Z,100800.66
2022-08-22T15:17:59.062Z,100791.41
2022-08-22T15:20:34.111Z,100783.53
2022-08-22T15:23:10.044Z,100789.13
2022-08-22T15:25:42.586Z,100784.47
2022-08-22T15:28:21.278Z,100781.13
2022-08-22T15:31:03.723Z,100788.34
2022-08-22T15:33:34.586Z,100790.69
2022-08-22T15:36:15.898Z,100795.25
2022-08-22T15:38:48.112Z,100790.41
2022-08-22T15:41:42.102Z,100781.75
2022-08-22T15:44:30.567Z,100792.53
2022-08-22T15:47:04.619Z,100784.41
2022-08-22T15:49:36.845Z,100781.13
2022-08-22T15:52:22.612Z,100782.38
2022-08-22T15:55:20.898Z,100783.78
2022-08-22T15:58:02.111Z,100782.66
2022-08-22T16:00:34.865Z,100787.41
2022-08-22T16:03:08.035Z,100793.16
2022-08-22T16:05:46.152Z,100785.56
2022-08-22T16:08:17.974Z,100790.84
2022-08-22T16:10:52.386Z,100790.25
2022-08-22T16:13:42.606Z,100791.75
2022-08-22T16:16:27.459Z,100784.22
2022-08-22T16:19:19.001Z,100787.19
2022-08-22T16:22:05.449Z,100780.44
2022-08-22T16:24:56.241Z,100779.69
2022-08-22T16:27:27.623Z,100770.56
2022-08-22T16:30:12.737Z,100783.69
2022-08-22T16:32:41.611Z,100781.31
2022-08-22T16:35:09.680Z,100767.59
2022-08-22T16:37:52.969Z,100764.38
2022-08-22T16:40:27.933Z,100767.06
2022-08-22T16:43:16.872Z,100771.06
2022-08-22T16:45:48.654Z,100769.16
2022-08-22T16:48:27.050Z,100775.63
2022-08-22T16:51:22.591Z,100774.50
2022-08-22T16:54:13.647Z,100770.19
2022-08-22T16:56:58.450Z,100768.25
2022-08-22T16:59:49.959Z,100773.56
2022-08-22T17:02:34.298Z,100769.41
2022-08-22T17:05:19.404Z,100780.09
2022-08-22T17:08:09.640Z,100778.31
2022-08-22T17:10:47.311Z,100778.81
2022-08-22T17:13:34.542Z,100776.00
2022-08-22T17:16:15.707Z,100776.72
2022-08-22T17:19:01.057Z,100773.97
2022-08-22T17:21:38.644Z,100771.22
2022-08-22T17:24:32.027Z,100772.28
2022-08-22T17:27:09.332Z,100776.00
2022-08-22T17:30:03.045Z,100771.69
2022-08-22T17:32:39.108Z,100772.59
2022-08-22T17:35:21.870Z,100770.72
2022-08-22T17:38:03.029Z,100770.72
2022-08-22T17:40:43.009Z,100771.53
2022-08-22T17:43:23.140Z,100761.28
2022-08-22T17:46:15.510Z,100765.84
2022-08-22T17:48:48.338Z,100759.34
2022-08-22T17:51:28.771Z,100767.66
2022-08-22T17:54:03.507Z,100769.19
2022-08-22T17:56:40.504Z,100761.38
2022-08-22T17:59:20.996Z,100758.94
2022-08-22T18:01:54.474Z,100758.38
2022-08-22T18:04:34.760Z,100756.66
2022-08-22T18:07:29.556Z,100759.06
2022-08-22T18:10:04.852Z,100765.72
2022-08-22T18:12:39.429Z,100759.78
2022-08-22T18:15:12.569Z,100757.56
2022-08-22T18:17:50.213Z,100762.63
2022-08-22T18:20:25.764Z,100764.97
2022-08-22T18:23:01.298Z,100766.03
2022-08-22T18:25:37.879Z,100763.25
2022-08-22T18:28:13.952Z,100772.00
2022-08-22T18:30:55.660Z,100768.44
2022-08-22T18:33:32.921Z,100760.63
2022-08-22T18:36:11.081Z,100754.34
2022-08-22T18:38:50.694Z,100757.53
2022-08-22T18:41:28.641Z,100761.28
2022-08-22T18:44:00.132Z,100759.31
2022-08-22T18:46:44.425Z,100761.19
2022-08-22T18:49:29.930Z,100758.97
2022-08-22T18:52:19.071Z,100770.56
2022-08-22T18:55:05.409Z,100778.63
2022-08-22T18:57:45.453Z,100779.13
2022-08-22T19:00:17.931Z,100774.91
2022-08-22T19:03:24.548Z,100778.06
2022-08-22T19:06:31.259Z,100780.66
2022-08-22T19:09:47.104Z,100778.22
2022-08-22T19:12:43.080Z,100772.75
2022-08-22T19:15:34.013Z,100766.56
2022-08-22T19:18:28.726Z,100760.38
2022-08-22T19:21:41.000Z,100764.03
2022-08-22T19:24:12.670Z,100760.88
2022-08-22T19:26:43.984Z,100759.22
2022-08-22T19:29:56.996Z,100757.59
2022-08-22T19:32:59.203Z,100758.09
2022-08-22T19:35:36.461Z,100759.38
2022-08-22T19:38:07.434Z,100765.47
2022-08-22T19:40:54.595Z,100756.59
2022-08-22T19:43:34.322Z,100763.84
2022-08-22T19:46:07.905Z,100768.38
2022-08-22T19:48:45.859Z,100768.03
2022-08-22T19:51:26.510Z,100767.00
2022-08-22T19:54:18.437Z,100769.56
2022-08-22T19:57:02.814Z,100770.88
2022-08-22T19:59:50.666Z,100761.78
2022-08-22T20:02:35.283Z,100767.13
2022-08-22T20:05:27.764Z,100767.13
2022-08-22T20:08:09.677Z,100752.31
2022-08-22T20:10:50.872Z,100753.38
2022-08-22T20:13:23.988Z,100750.69
2022-08-22T20:16:07.263Z,100752.56
2022-08-22T20:19:18.055Z,100753.63
2022-08-22T20:22:00.126Z,100746.63
2022-08-22T20:24:39.726Z,100754.66
2022-08-22T20:27:16.014Z,100747.66
2022-08-22T20:29:50.117Z,100748.97
2022-08-22T20:32:21.633Z,100748.97
2022-08-22T20:34:52.760Z,100749.69
2022-08-22T20:37:45.015Z,100745.38
2022-08-22T20:40:55.262Z,100754.13
2022-08-22T20:43:30.036Z,100747.13
2022-08-22T20:46:13.651Z,100741.75
2022-08-22T20:48:45.546Z,100733.97
2022-08-22T20:51:18.142Z,100733.06
2022-08-22T20:53:53.376Z,100733.31
2022-08-22T20:56:37.187Z,100732.94
2022-08-22T20:59:23.612Z,100736.09
2022-08-22T21:01:57.446Z,100738.19
2022-08-22T21:04:31.454Z,100732.50
2022-08-22T21:07:02.070Z,100736.22
2022-08-22T21:09:48.831Z,100729.25
2022-08-22T21:12:17.135Z,100740.78
2022-08-22T21:14:47.223Z,100738.66
2022-08-22T21:17:21.983Z,100724.47
2022-08-22T21:19:50.772Z,100740.28
2022-08-22T21:22:27.184Z,100726.91
2022-08-22T21:24:57.008Z,100734.13
2022-08-22T21:27:30.617Z,100741.59
2022-08-22T21:30:00.286Z,100737.28
2022-08-22T21:32:34.851Z,100731.94
2022-08-22T21:35:05.164Z,100735.06
2022-08-22T21:37:39.954Z,100738.81
2022-08-22T21:40:16.389Z,100729.00
2022-08-22T21:42:58.758Z,100730.31
2022-08-22T21:45:29.965Z,100733.22
2022-08-22T21:47:58.751Z,100733.69
2022-08-22T21:50:34.805Z,100733.69
2022-08-22T21:53:09.142Z,100734.16
2022-08-22T21:55:43.114Z,100742.88
2022-08-22T21:58:36.844Z,100738.84
2022-08-22T22:01:29.313Z,100739.84
2022-08-22T22:03:59.687Z,100740.09
2022-08-22T22:06:28.125Z,100740.69
2022-08-22T22:08:57.652Z,100742.53
2022-08-22T22:11:25.834Z,100738.84
2022-08-22T22:13:54.497Z,100737.19
2022-08-22T22:16:27.251Z,100739.28
2022-08-22T22:18:55.722Z,100751.88
2022-08-22T22:21:24.455Z,100747.56
2022-08-22T22:23:52.629Z,100747.56
2022-08-22T22:26:22.289Z,100750.44
2022-08-22T22:28:51.347Z,100753.13
2022-08-22T22:31:20.002Z,100765.50
2022-08-22T22:33:48.398Z,100762.81
2022-08-22T22:36:21.654Z,100756.41
2022-08-22T22:38:52.155Z,100753.72
2022-08-22T22:41:25.479Z,100755.34
2022-08-22T22:43:54.095Z,100758.03
2022-08-22T22:46:22.616Z,100754.28
2022-08-22T22:48:51.062Z,100749.75
2022-08-22T22:51:19.238Z,100747.06
2022-08-22T22:53:48.148Z,100748.72
2022-08-22T22:56:21.283Z,100749.53
2022-08-22T22:58:59.044Z,100754.09
2022-08-22T23:02:01.509Z,100757.56
2022-08-22T23:04:30.189Z,100754.91
2022-08-22T23:06:58.604Z,100752.22
2022-08-22T23:09:38.188Z,100744.41
2022-08-22T23:12:07.816Z,100751.06
2022-08-22T23:14:38.143Z,100753.25
2022-08-22T23:17:07.301Z,100754.53
2022-08-22T23:19:36.330Z,100754.53
2022-08-22T23:22:04.545Z,100757.22
2022-08-22T23:24:33.938Z,100754.78
2022-08-22T23:27:02.549Z,100755.81
2022-08-22T23:29:30.761Z,100752.09
2022-08-22T23:32:02.372Z,100751.75
2022-08-22T23:34:31.943Z,100753.00
2022-08-22T23:37:06.439Z,100766.19
2022-08-22T23:39:38.259Z,100761.03
2022-08-22T23:42:08.047Z,100756.75
2022-08-22T23:44:38.311Z,100757.81
2022-08-22T23:47:09.987Z,100746.47
2022-08-22T23:49:39.568Z,100741.75
2022-08-22T23:52:10.553Z,100741.75
2022-08-22T23:54:38.950Z,100731.03
2022-08-22T23:57:11.892Z,100726.50
2022-08-22T23:59:47.856Z,100715.78
